You are not logged in, Click here to log in
ICAO: KMIA Country: 美國佛羅里達州邁阿密市中心西北13公里
Latitude: 25.7959 Longitude: -80.287
Total Arrivals: 24 Total Departures: 26
Latest Arrival: A224860 (TNCM-KMIA)Arthur. Kung Latest Departure: FS17 (KMIA-EBLG)ALAN. LIU
Scenery:
METAR : KMIA 210653Z 09006KT 10SM FEW027 27/22 A3005 RMK AO2 SLP175 T02720217

邁阿密國際機場MIA